메인 페이지
METAR-TAF:

METAR-TAF

공항 :

포트워스, 텍사스, 미국

위도: 32-58-24N, 경도: 097-19-05W, 고도: 220m

현재 날씨관측

예보는 34분 전, 21:01시(UTC)에 발표되었습니다.
북동7kt
온도 16°C
습도 88%
기압 1012 hPa
시정: 1.6km
고도 400ft 상공 흐림
약한이슬비, 박무

METAR: KAFW 252101Z 05007KT 1SM R16L/5000V6000FT -DZ BR OVC004 16/14 A2989 RMK AO2 TWR VIS 3 CIG 003V007 P0000 T01610144 $

시각: 16:35 (21:35 UTC)

예보

예보는 30분 전, 21:05시(UTC)에 발표되었습니다.
예보 대상 시간: 25일 21시부터 26일 18시까지 (UTC)
북동8kt
시정: 4.8km
고도 800ft 상공 흐림
약한비, 박무
일시적
25일 21시부터 25일 24시까지 (UTC)
시정: 1.6km
고도 500ft 상공 구름 많음
약한이슬비, 박무
26일 0100시부터 (UTC)
동북동9kt
시정: 8.0km
고도 1200ft 상공 흐림
박무
26일 0300시부터 (UTC)
동북동11kt
시정: 4.8km
고도 700ft 상공 흐림
약한이슬비, 박무
26일 1300시부터 (UTC)
북북동15kt
시정: 3.2km
고도 600ft 상공 흐림
약한비, 박무

TAF: KAFW 252105Z 2521/2618 05008KT 3SM -RA BR OVC008 TEMPO 2521/2524 1SM -DZ BR BKN005 FM260100 07009KT 5SM BR OVC012 FM260300 06011KT 3SM -DZ BR OVC007 FM261300 02015KT 2SM -RA BR OVC006

4,000개 이상의 공항 관측 자료 및 예보 (METAR 및 TAF 보고).

지도상에서 검색 가능한 기상관측소가 노란 점과 빨간 점으로 표시되어 있습니다.

기상관측소 명을 보려면 표시 위로 마우스를 이동하세요.

날씨 관측과 예보를 보려면 클릭하세요.

지도 변경 : 확대하려면 엑스 표시가 있는 녹색 버튼, 축소하려면 빼기 표시가 있는 녹색 버튼, 다음 페이지의 지도를 보려면 녹색 화살표를 클릭하세요.


METAR-TAF: